CMA CGM Aristote — MRPN4 — position and weather

sailwx.info

Track history (hours):
 
Tides and Currents Weather Stations Pressure Air Temp Water Temp Dewpoint Dewpoint Depression Visibility Wind Speed Wind Dir Waves Ship Positions

CMA CGM Aristote

Last reported at 2015-Aug-22 17:25 UTC. Time now 2015-Aug-28 07:34 UTC.
Position N 39°54' W 034°09'.

Length 170 m; draft 9 m.

Type: Ship (hazmat cat A). MMSI: 235054581.

Date/timePositionNaut miles runAvg speedWind from/ knotsBaromVisibWave heightAir tempDewpointWater temp
2015-Aug-22 17:25N 39°54' W 034°09'1517.4
2015-Aug-22 16:34N 40°02' W 033°52'1817.5
2015-Aug-22 15:32N 40°11' W 033°32'1717.6
2015-Aug-22 14:33N 40°21' W 033°13'1817.8
2015-Aug-22 13:32N 40°30' W 032°53'1717.6
2015-Aug-22 12:33N 40°39' W 032°33'2017.7
2015-Aug-22 11:24N 40°50' W 032°10'1517.6
2015-Aug-22 10:33N 40°58' W 031°54'1817.9
2015-Aug-22 09:33N 41°08' W 031°33'1817.6
2015-Aug-22 08:32N 41°17' W 031°13'1817.6
2015-Aug-22 07:32N 41°26' W 030°53'3618.0
2015-Aug-22 05:32N 41°46' W 030°12'  
2015-Aug-19 06:13N 50°02' W 002°22'2119.1
2015-Aug-19 05:09N 49°58' W 001°50'1220.2
2015-Aug-19 04:33N 49°54' W 001°33'2120.7
2015-Aug-19 03:33N 49°47' W 001°02'1918.9
2015-Aug-19 02:34N 49°40' W 000°36'1717.4
2015-Aug-19 01:34N 49°33' W 000°11'1312.6
2015-Aug-19 00:33N 49°29' E 000°07'2 1.9
2015-Aug-18 23:31N 49°29' E 000°10'0 0.0
2015-Aug-18 22:31N 49°29' E 000°10'0 0.0
2015-Aug-18 21:31N 49°29' E 000°10'0 0.0
2015-Aug-18 20:31N 49°29' E 000°10'0 0.0
2015-Aug-18 19:31N 49°29' E 000°10'0 0.0
2015-Aug-18 18:31N 49°29' E 000°10'0 0.0
2015-Aug-18 17:31N 49°29' E 000°10'0 0.0
2015-Aug-18 16:31N 49°29' E 000°10'0 0.0
2015-Aug-18 15:31N 49°29' E 000°10'0 0.0
2015-Aug-18 14:31N 49°29' E 000°10'0 0.0
2015-Aug-18 13:31N 49°29' E 000°10'0 0.0
2015-Aug-18 12:31N 49°29' E 000°10'0 0.0
2015-Aug-18 11:31N 49°29' E 000°10'0 0.0
2015-Aug-18 10:31N 49°29' E 000°10'0 0.0
2015-Aug-18 09:31N 49°29' E 000°10'0 0.0
2015-Aug-18 08:31N 49°29' E 000°10'0 0.0
2015-Aug-18 07:31N 49°29' E 000°10'0 0.0
2015-Aug-18 06:31N 49°29' E 000°10'0 0.0
2015-Aug-18 05:31N 49°29' E 000°10'0 0.0
2015-Aug-18 04:31N 49°29' E 000°10'0 0.0
2015-Aug-18 04:10N 49°29' E 000°10'0 0.2
2015-Aug-18 04:07N 49°29' E 000°10'0 0.0
2015-Aug-18 03:31N 49°29' E 000°10'0 0.0
2015-Aug-18 02:31N 49°29' E 000°10'0 0.0
2015-Aug-18 01:31N 49°29' E 000°10'0 0.0
2015-Aug-18 00:31N 49°29' E 000°10'4 4.1
2015-Aug-17 23:33N 49°29' E 000°04'6 5.6
2015-Aug-17 22:34N 49°26' E 000°11'1110.6
2015-Aug-17 21:33N 49°28' E 000°27'7 7.3
2015-Aug-17 20:33N 49°26' E 000°38'7 6.5
2015-Aug-17 19:33N 49°29' E 000°47'3 3.0
2015-Aug-17 18:28N 49°28' E 000°52'3 0.1
2015-Aug-16 14:07N 49°28' E 000°56'4 6.3
2015-Aug-16 13:29N 49°25' E 000°52'9 7.9
2015-Aug-16 12:22N 49°31' E 000°43'8 9.6
2015-Aug-16 11:34N 49°27' E 000°33'1110.7
2015-Aug-16 10:33N 49°26' E 000°17'1212.5
2015-Aug-16 09:33N 49°28' W 000°02'1010.1
2015-Aug-16 08:33N 49°36' W 000°11'1313.2
2015-Aug-16 07:33N 49°50' W 000°10'3113.8
2015-Aug-16 05:18N 50°21' W 000°07'1114.2
2015-Aug-16 04:31N 50°29' E 000°05'1515.4
2015-Aug-16 03:33N 50°34' E 000°27'1514.8
2015-Aug-16 02:33N 50°42' E 000°46'1515.3
2015-Aug-16 01:33N 50°52' E 001°04'1515.3
2015-Aug-16 00:33N 51°02' E 001°23'1514.8
2015-Aug-15 23:34N 51°11' E 001°41'1514.6
2015-Aug-15 22:34N 51°24' E 001°31'1211.7
2015-Aug-15 21:33N 51°29' E 001°14'9 9.4
2015-Aug-15 20:33N 51°29' E 000°59'1312.9
2015-Aug-15 19:33N 51°30' E 000°38'1110.7
2015-Aug-15 18:34N 51°27' E 000°21'1 1.1
2015-Aug-15 17:34N 51°27' E 000°20'0 0.0
2015-Aug-15 16:34N 51°27' E 000°20'0 0.0
2015-Aug-15 15:34N 51°27' E 000°20'0 0.0
2015-Aug-15 14:34N 51°27' E 000°20'0 0.0
2015-Aug-15 13:34N 51°27' E 000°20'0 0.0
2015-Aug-15 12:34N 51°27' E 000°20'0 0.0
2015-Aug-15 11:34N 51°27' E 000°20'0 0.0
2015-Aug-15 10:34N 51°27' E 000°20'0 0.0
2015-Aug-15 09:34N 51°27' E 000°20'0 0.0
2015-Aug-15 08:34N 51°27' E 000°20'2 2.1
2015-Aug-15 07:34N 51°27' E 000°23'9 9.4
2015-Aug-15 06:33N 51°30' E 000°38'1312.8
2015-Aug-15 05:34N 51°29' E 000°58'1110.7
2015-Aug-15 04:33N 51°29' E 001°15'1211.6
2015-Aug-15 03:33N 51°28' E 001°34'1413.6
2015-Aug-15 02:33N 51°35' E 001°53'1413.9
2015-Aug-15 01:33N 51°44' E 002°09'5012.6
2015-Aug-14 21:33N 52°03' E 003°25'1313.7
2015-Aug-14 20:34N 52°04' E 003°47'1312.6
2015-Aug-14 19:34N 51°59' E 004°06'1211.5
2015-Aug-14 18:33N 51°54' E 004°22'2 1.6
2015-Aug-14 17:33N 51°53' E 004°24'0 0.0
2015-Aug-14 16:33N 51°53' E 004°24'0 0.0
2015-Aug-14 15:32N 51°53' E 004°24'0 0.0
2015-Aug-14 14:32N 51°53' E 004°24'0 0.0
2015-Aug-14 13:33N 51°53' E 004°24'0 0.0
2015-Aug-14 12:32N 51°53' E 004°24'0 0.0
2015-Aug-14 11:32N 51°53' E 004°24'0 0.0
2015-Aug-14 10:32N 51°53' E 004°24'0 0.0
2015-Aug-14 09:32N 51°53' E 004°24'0 0.0
2015-Aug-14 08:32N 51°53' E 004°24'0 0.0
2015-Aug-14 07:33N 51°53' E 004°24'0 0.0
2015-Aug-14 06:29N 51°53' E 004°24'0 0.0
2015-Aug-14 05:32N 51°53' E 004°24'0 0.0
2015-Aug-14 04:33N 51°53' E 004°24'0 0.0
2015-Aug-14 03:32N 51°53' E 004°24'0 0.0
2015-Aug-14 02:32N 51°53' E 004°24'0 0.0
2015-Aug-14 01:32N 51°53' E 004°24'0 0.0
2015-Aug-14 00:32N 51°53' E 004°24'0 0.0
2015-Aug-13 23:32N 51°53' E 004°24'0 0.0
2015-Aug-13 22:32N 51°53' E 004°24'0 0.0
2015-Aug-13 21:32N 51°53' E 004°24'0 0.0
2015-Aug-13 20:32N 51°53' E 004°24'0 0.0
2015-Aug-13 19:33N 51°53' E 004°24'0 0.0
2015-Aug-13 18:32N 51°53' E 004°24'0 0.0
2015-Aug-13 17:32N 51°53' E 004°24'0 0.0
2015-Aug-13 16:32N 51°53' E 004°24'0 0.0
2015-Aug-13 15:32N 51°53' E 004°24'0 0.0
2015-Aug-13 14:33N 51°53' E 004°24'0 0.0
2015-Aug-13 13:29N 51°53' E 004°24'0 0.0
2015-Aug-13 12:33N 51°53' E 004°24'0 0.0
2015-Aug-13 11:32N 51°53' E 004°24'0 0.0
2015-Aug-13 10:32N 51°53' E 004°24'0 0.0
2015-Aug-13 09:31N 51°53' E 004°24'0 0.0
2015-Aug-13 08:31N 51°53' E 004°24'0 0.0
2015-Aug-13 07:31N 51°53' E 004°24'0 0.0
2015-Aug-13 06:31N 51°53' E 004°24'0 0.0
2015-Aug-13 05:31N 51°53' E 004°24'0 0.0
2015-Aug-13 04:33N 51°53' E 004°24'4 4.1
2015-Aug-13 03:33N 51°54' E 004°18'1111.5
2015-Aug-13 02:33N 51°60' E 004°02'1111.2
2015-Aug-13 01:34N 51°58' E 003°44'1515.4
2015-Aug-13 00:33N 51°54' E 003°20'1615.7
2015-Aug-12 23:33N 51°49' E 002°55'1515.4
2015-Aug-12 22:33N 51°42' E 002°33'1616.0
2015-Aug-12 21:33N 51°30' E 002°16'1616.1
2015-Aug-12 20:33N 51°15' E 002°05'1616.3
2015-Aug-12 19:34N 51°06' E 001°44'1716.6
2015-Aug-12 18:34N 50°53' E 001°27'1615.8
2015-Aug-12 17:33N 50°40' E 001°14'  
Track history (hours):
 
Tides and Currents Weather Stations Pressure Air Temp Water Temp Dewpoint Dewpoint Depression Visibility Wind Speed Wind Dir Waves Ship Positions

CMA CGM Aristote

Last reported at 2015-Aug-22 17:25 UTC. Time now 2015-Aug-28 07:34 UTC.
Position N 39°54' W 034°09'.

Length 170 m; draft 9 m.

Type: Ship (hazmat cat A). MMSI: 235054581.

Date/timePositionNaut miles runAvg speedWind from/ knotsBaromVisibWave heightAir tempDewpointWater temp
2015-Aug-22 17:25N 39°54' W 034°09'1517.4
2015-Aug-22 16:34N 40°02' W 033°52'1817.5
2015-Aug-22 15:32N 40°11' W 033°32'1717.6
2015-Aug-22 14:33N 40°21' W 033°13'1817.8
2015-Aug-22 13:32N 40°30' W 032°53'1717.6
2015-Aug-22 12:33N 40°39' W 032°33'2017.7
2015-Aug-22 11:24N 40°50' W 032°10'1517.6
2015-Aug-22 10:33N 40°58' W 031°54'1817.9
2015-Aug-22 09:33N 41°08' W 031°33'1817.6
2015-Aug-22 08:32N 41°17' W 031°13'1817.6
2015-Aug-22 07:32N 41°26' W 030°53'3618.0
2015-Aug-22 05:32N 41°46' W 030°12'  
2015-Aug-19 06:13N 50°02' W 002°22'2119.1
2015-Aug-19 05:09N 49°58' W 001°50'1220.2
2015-Aug-19 04:33N 49°54' W 001°33'2120.7
2015-Aug-19 03:33N 49°47' W 001°02'1918.9
2015-Aug-19 02:34N 49°40' W 000°36'1717.4
2015-Aug-19 01:34N 49°33' W 000°11'1312.6
2015-Aug-19 00:33N 49°29' E 000°07'2 1.9
2015-Aug-18 23:31N 49°29' E 000°10'0 0.0
2015-Aug-18 22:31N 49°29' E 000°10'0 0.0
2015-Aug-18 21:31N 49°29' E 000°10'0 0.0
2015-Aug-18 20:31N 49°29' E 000°10'0 0.0
2015-Aug-18 19:31N 49°29' E 000°10'0 0.0
2015-Aug-18 18:31N 49°29' E 000°10'0 0.0
2015-Aug-18 17:31N 49°29' E 000°10'0 0.0
2015-Aug-18 16:31N 49°29' E 000°10'0 0.0
2015-Aug-18 15:31N 49°29' E 000°10'0 0.0
2015-Aug-18 14:31N 49°29' E 000°10'0 0.0
2015-Aug-18 13:31N 49°29' E 000°10'0 0.0
2015-Aug-18 12:31N 49°29' E 000°10'0 0.0
2015-Aug-18 11:31N 49°29' E 000°10'0 0.0
2015-Aug-18 10:31N 49°29' E 000°10'0 0.0
2015-Aug-18 09:31N 49°29' E 000°10'0 0.0
2015-Aug-18 08:31N 49°29' E 000°10'0 0.0
2015-Aug-18 07:31N 49°29' E 000°10'0 0.0
2015-Aug-18 06:31N 49°29' E 000°10'0 0.0
2015-Aug-18 05:31N 49°29' E 000°10'0 0.0
2015-Aug-18 04:31N 49°29' E 000°10'0 0.0
2015-Aug-18 04:10N 49°29' E 000°10'0 0.2
2015-Aug-18 04:07N 49°29' E 000°10'0 0.0
2015-Aug-18 03:31N 49°29' E 000°10'0 0.0
2015-Aug-18 02:31N 49°29' E 000°10'0 0.0
2015-Aug-18 01:31N 49°29' E 000°10'0 0.0
2015-Aug-18 00:31N 49°29' E 000°10'4 4.1
2015-Aug-17 23:33N 49°29' E 000°04'6 5.6
2015-Aug-17 22:34N 49°26' E 000°11'1110.6
2015-Aug-17 21:33N 49°28' E 000°27'7 7.3
2015-Aug-17 20:33N 49°26' E 000°38'7 6.5
2015-Aug-17 19:33N 49°29' E 000°47'3 3.0
2015-Aug-17 18:28N 49°28' E 000°52'3 0.1
2015-Aug-16 14:07N 49°28' E 000°56'4 6.3
2015-Aug-16 13:29N 49°25' E 000°52'9 7.9
2015-Aug-16 12:22N 49°31' E 000°43'8 9.6
2015-Aug-16 11:34N 49°27' E 000°33'1110.7
2015-Aug-16 10:33N 49°26' E 000°17'1212.5
2015-Aug-16 09:33N 49°28' W 000°02'1010.1
2015-Aug-16 08:33N 49°36' W 000°11'1313.2
2015-Aug-16 07:33N 49°50' W 000°10'3113.8
2015-Aug-16 05:18N 50°21' W 000°07'1114.2
2015-Aug-16 04:31N 50°29' E 000°05'1515.4
2015-Aug-16 03:33N 50°34' E 000°27'1514.8
2015-Aug-16 02:33N 50°42' E 000°46'1515.3
2015-Aug-16 01:33N 50°52' E 001°04'1515.3
2015-Aug-16 00:33N 51°02' E 001°23'1514.8
2015-Aug-15 23:34N 51°11' E 001°41'1514.6
2015-Aug-15 22:34N 51°24' E 001°31'1211.7
2015-Aug-15 21:33N 51°29' E 001°14'9 9.4
2015-Aug-15 20:33N 51°29' E 000°59'1312.9
2015-Aug-15 19:33N 51°30' E 000°38'1110.7
2015-Aug-15 18:34N 51°27' E 000°21'1 1.1
2015-Aug-15 17:34N 51°27' E 000°20'0 0.0
2015-Aug-15 16:34N 51°27' E 000°20'0 0.0
2015-Aug-15 15:34N 51°27' E 000°20'0 0.0
2015-Aug-15 14:34N 51°27' E 000°20'0 0.0
2015-Aug-15 13:34N 51°27' E 000°20'0 0.0
2015-Aug-15 12:34N 51°27' E 000°20'0 0.0
2015-Aug-15 11:34N 51°27' E 000°20'0 0.0
2015-Aug-15 10:34N 51°27' E 000°20'0 0.0
2015-Aug-15 09:34N 51°27' E 000°20'0 0.0
2015-Aug-15 08:34N 51°27' E 000°20'2 2.1
2015-Aug-15 07:34N 51°27' E 000°23'9 9.4
2015-Aug-15 06:33N 51°30' E 000°38'1312.8
2015-Aug-15 05:34N 51°29' E 000°58'1110.7
2015-Aug-15 04:33N 51°29' E 001°15'1211.6
2015-Aug-15 03:33N 51°28' E 001°34'1413.6
2015-Aug-15 02:33N 51°35' E 001°53'1413.9
2015-Aug-15 01:33N 51°44' E 002°09'5012.6
2015-Aug-14 21:33N 52°03' E 003°25'1313.7
2015-Aug-14 20:34N 52°04' E 003°47'1312.6
2015-Aug-14 19:34N 51°59' E 004°06'1211.5
2015-Aug-14 18:33N 51°54' E 004°22'2 1.6
2015-Aug-14 17:33N 51°53' E 004°24'0 0.0
2015-Aug-14 16:33N 51°53' E 004°24'0 0.0
2015-Aug-14 15:32N 51°53' E 004°24'0 0.0
2015-Aug-14 14:32N 51°53' E 004°24'0 0.0
2015-Aug-14 13:33N 51°53' E 004°24'0 0.0
2015-Aug-14 12:32N 51°53' E 004°24'0 0.0
2015-Aug-14 11:32N 51°53' E 004°24'0 0.0
2015-Aug-14 10:32N 51°53' E 004°24'0 0.0
2015-Aug-14 09:32N 51°53' E 004°24'0 0.0
2015-Aug-14 08:32N 51°53' E 004°24'0 0.0
2015-Aug-14 07:33N 51°53' E 004°24'0 0.0
2015-Aug-14 06:29N 51°53' E 004°24'0 0.0
2015-Aug-14 05:32N 51°53' E 004°24'0 0.0
2015-Aug-14 04:33N 51°53' E 004°24'0 0.0
2015-Aug-14 03:32N 51°53' E 004°24'0 0.0
2015-Aug-14 02:32N 51°53' E 004°24'0 0.0
2015-Aug-14 01:32N 51°53' E 004°24'0 0.0
2015-Aug-14 00:32N 51°53' E 004°24'0 0.0
2015-Aug-13 23:32N 51°53' E 004°24'0 0.0
2015-Aug-13 22:32N 51°53' E 004°24'0 0.0
2015-Aug-13 21:32N 51°53' E 004°24'0 0.0
2015-Aug-13 20:32N 51°53' E 004°24'0 0.0
2015-Aug-13 19:33N 51°53' E 004°24'0 0.0
2015-Aug-13 18:32N 51°53' E 004°24'0 0.0
2015-Aug-13 17:32N 51°53' E 004°24'0 0.0
2015-Aug-13 16:32N 51°53' E 004°24'0 0.0
2015-Aug-13 15:32N 51°53' E 004°24'0 0.0
2015-Aug-13 14:33N 51°53' E 004°24'0 0.0
2015-Aug-13 13:29N 51°53' E 004°24'0 0.0
2015-Aug-13 12:33N 51°53' E 004°24'0 0.0
2015-Aug-13 11:32N 51°53' E 004°24'0 0.0
2015-Aug-13 10:32N 51°53' E 004°24'0 0.0
2015-Aug-13 09:31N 51°53' E 004°24'0 0.0
2015-Aug-13 08:31N 51°53' E 004°24'0 0.0
2015-Aug-13 07:31N 51°53' E 004°24'0 0.0
2015-Aug-13 06:31N 51°53' E 004°24'0 0.0
2015-Aug-13 05:31N 51°53' E 004°24'0 0.0
2015-Aug-13 04:33N 51°53' E 004°24'4 4.1
2015-Aug-13 03:33N 51°54' E 004°18'1111.5
2015-Aug-13 02:33N 51°60' E 004°02'1111.2
2015-Aug-13 01:34N 51°58' E 003°44'1515.4
2015-Aug-13 00:33N 51°54' E 003°20'1615.7
2015-Aug-12 23:33N 51°49' E 002°55'1515.4
2015-Aug-12 22:33N 51°42' E 002°33'1616.0
2015-Aug-12 21:33N 51°30' E 002°16'1616.1
2015-Aug-12 20:33N 51°15' E 002°05'1616.3
2015-Aug-12 19:34N 51°06' E 001°44'1716.6
2015-Aug-12 18:34N 50°53' E 001°27'1615.8
2015-Aug-12 17:33N 50°40' E 001°14'  

Dump ship's entire track history